sensor_id;sensor_type;location;lat;lon;timestamp;pressure;altitude;pressure_sealevel;temperature;humidity
71465;BME280;59274;49.874;9.154;2024-03-06T00:01:53;100412.19;;;6.63;100.00
71465;BME280;59274;49.874;9.154;2024-03-06T00:04:18;100412.19;;;6.63;100.00
71465;BME280;59274;49.874;9.154;2024-03-06T00:06:44;100416.00;;;6.62;100.00
71465;BME280;59274;49.874;9.154;2024-03-06T00:09:09;100416.66;;;6.72;100.00
71465;BME280;59274;49.874;9.154;2024-03-06T00:11:35;100416.34;;;6.61;100.00
71465;BME280;59274;49.874;9.154;2024-03-06T00:14:02;100422.72;;;6.68;100.00
71465;BME280;59274;49.874;9.154;2024-03-06T00:16:28;100418.81;;;6.66;100.00
71465;BME280;59274;49.874;9.154;2024-03-06T00:18:53;100429.69;;;6.69;100.00
71465;BME280;59274;49.874;9.154;2024-03-06T00:21:19;100430.41;;;6.66;100.00
71465;BME280;59274;49.874;9.154;2024-03-06T00:23:44;100443.78;;;6.51;100.00
71465;BME280;59274;49.874;9.154;2024-03-06T00:26:12;100442.00;;;6.43;100.00
71465;BME280;59274;49.874;9.154;2024-03-06T00:28:38;100435.16;;;6.45;100.00
71465;BME280;59274;49.874;9.154;2024-03-06T00:31:07;100448.41;;;6.50;100.00
71465;BME280;59274;49.874;9.154;2024-03-06T00:33:33;100446.59;;;6.54;100.00
71465;BME280;59274;49.874;9.154;2024-03-06T00:36:01;100445.16;;;6.45;100.00
71465;BME280;59274;49.874;9.154;2024-03-06T00:38:26;100452.69;;;6.39;100.00
71465;BME280;59274;49.874;9.154;2024-03-06T00:40:52;100449.34;;;6.18;100.00
71465;BME280;59274;49.874;9.154;2024-03-06T00:43:17;100459.19;;;6.14;100.00
71465;BME280;59274;49.874;9.154;2024-03-06T00:45:43;100461.44;;;6.12;100.00
71465;BME280;59274;49.874;9.154;2024-03-06T00:48:09;100463.13;;;6.04;100.00
71465;BME280;59274;49.874;9.154;2024-03-06T00:50:34;100469.75;;;6.07;100.00
71465;BME280;59274;49.874;9.154;2024-03-06T00:53:01;100471.09;;;6.13;100.00
71465;BME280;59274;49.874;9.154;2024-03-06T00:55:29;100473.81;;;6.13;100.00
71465;BME280;59274;49.874;9.154;2024-03-06T00:57:55;100466.03;;;6.11;100.00
71465;BME280;59274;49.874;9.154;2024-03-06T01:00:22;100477.28;;;6.13;100.00
71465;BME280;59274;49.874;9.154;2024-03-06T01:02:50;100471.91;;;6.13;100.00
71465;BME280;59274;49.874;9.154;2024-03-06T01:05:16;100472.03;;;6.17;100.00
71465;BME280;59274;49.874;9.154;2024-03-06T01:07:41;100474.13;;;6.11;100.00
71465;BME280;59274;49.874;9.154;2024-03-06T01:10:08;100482.03;;;6.16;100.00
71465;BME280;59274;49.874;9.154;2024-03-06T01:12:37;100475.47;;;6.05;100.00
71465;BME280;59274;49.874;9.154;2024-03-06T01:15:03;100483.25;;;6.07;100.00
71465;BME280;59274;49.874;9.154;2024-03-06T01:17:29;100485.47;;;5.93;100.00
71465;BME280;59274;49.874;9.154;2024-03-06T01:19:55;100492.81;;;5.83;100.00
71465;BME280;59274;49.874;9.154;2024-03-06T01:22:20;100493.19;;;5.82;100.00
71465;BME280;59274;49.874;9.154;2024-03-06T01:24:47;100482.25;;;5.78;100.00
71465;BME280;59274;49.874;9.154;2024-03-06T01:27:18;100486.06;;;5.65;100.00
71465;BME280;59274;49.874;9.154;2024-03-06T01:29:44;100480.19;;;5.63;100.00
71465;BME280;59274;49.874;9.154;2024-03-06T01:32:10;100479.09;;;5.64;100.00
71465;BME280;59274;49.874;9.154;2024-03-06T01:34:35;100479.63;;;5.58;100.00
71465;BME280;59274;49.874;9.154;2024-03-06T01:37:01;100478.47;;;5.46;100.00
71465;BME280;59274;49.874;9.154;2024-03-06T01:39:27;100478.66;;;5.41;100.00
71465;BME280;59274;49.874;9.154;2024-03-06T01:41:52;100482.75;;;5.27;100.00
71465;BME280;59274;49.874;9.154;2024-03-06T01:44:19;100485.19;;;5.20;100.00
71465;BME280;59274;49.874;9.154;2024-03-06T01:46:45;100488.25;;;5.18;100.00
71465;BME280;59274;49.874;9.154;2024-03-06T01:49:15;100489.03;;;5.19;100.00
71465;BME280;59274;49.874;9.154;2024-03-06T01:51:46;100492.69;;;5.14;100.00
71465;BME280;59274;49.874;9.154;2024-03-06T01:54:15;100491.91;;;5.13;100.00
71465;BME280;59274;49.874;9.154;2024-03-06T01:56:44;100487.72;;;5.04;100.00
71465;BME280;59274;49.874;9.154;2024-03-06T01:59:15;100494.06;;;4.99;100.00
71465;BME280;59274;49.874;9.154;2024-03-06T02:01:41;100492.56;;;4.90;100.00
71465;BME280;59274;49.874;9.154;2024-03-06T02:04:08;100492.22;;;4.70;100.00
71465;BME280;59274;49.874;9.154;2024-03-06T02:06:38;100490.91;;;4.77;100.00
71465;BME280;59274;49.874;9.154;2024-03-06T02:09:05;100490.78;;;4.73;100.00
71465;BME280;59274;49.874;9.154;2024-03-06T02:11:32;100488.22;;;4.77;100.00
71465;BME280;59274;49.874;9.154;2024-03-06T02:13:58;100477.97;;;4.70;100.00
71465;BME280;59274;49.874;9.154;2024-03-06T02:16:23;100488.66;;;4.58;100.00
71465;BME280;59274;49.874;9.154;2024-03-06T02:18:56;100484.19;;;4.62;100.00
71465;BME280;59274;49.874;9.154;2024-03-06T02:21:25;100477.56;;;4.59;100.00
71465;BME280;59274;49.874;9.154;2024-03-06T02:23:51;100476.31;;;4.57;100.00
71465;BME280;59274;49.874;9.154;2024-03-06T02:26:26;100483.00;;;4.51;100.00
71465;BME280;59274;49.874;9.154;2024-03-06T02:28:53;100472.94;;;4.39;100.00
71465;BME280;59274;49.874;9.154;2024-03-06T02:31:20;100481.00;;;4.39;100.00
71465;BME280;59274;49.874;9.154;2024-03-06T02:33:49;100486.25;;;4.36;100.00
71465;BME280;59274;49.874;9.154;2024-03-06T02:36:17;100492.91;;;4.29;100.00
71465;BME280;59274;49.874;9.154;2024-03-06T02:38:43;100490.41;;;4.24;100.00
71465;BME280;59274;49.874;9.154;2024-03-06T02:41:09;100492.97;;;4.12;100.00
71465;BME280;59274;49.874;9.154;2024-03-06T02:43:38;100491.75;;;4.10;100.00
71465;BME280;59274;49.874;9.154;2024-03-06T02:46:04;100491.25;;;4.08;100.00
71465;BME280;59274;49.874;9.154;2024-03-06T02:48:30;100496.50;;;4.04;100.00
71465;BME280;59274;49.874;9.154;2024-03-06T02:50:56;100495.53;;;4.09;100.00
71465;BME280;59274;49.874;9.154;2024-03-06T02:53:24;100497.78;;;3.98;100.00
71465;BME280;59274;49.874;9.154;2024-03-06T02:55:51;100511.53;;;3.97;100.00
71465;BME280;59274;49.874;9.154;2024-03-06T02:58:17;100507.41;;;3.99;100.00
71465;BME280;59274;49.874;9.154;2024-03-06T03:00:43;100503.31;;;3.93;100.00
71465;BME280;59274;49.874;9.154;2024-03-06T03:03:09;100503.00;;;3.94;100.00
71465;BME280;59274;49.874;9.154;2024-03-06T03:05:38;100506.97;;;3.97;100.00
71465;BME280;59274;49.874;9.154;2024-03-06T03:08:04;100512.78;;;3.99;100.00
71465;BME280;59274;49.874;9.154;2024-03-06T03:10:30;100508.69;;;4.02;100.00
71465;BME280;59274;49.874;9.154;2024-03-06T03:12:58;100508.34;;;4.12;100.00
71465;BME280;59274;49.874;9.154;2024-03-06T03:15:25;100500.88;;;4.17;100.00
71465;BME280;59274;49.874;9.154;2024-03-06T03:17:50;100503.69;;;4.21;100.00
71465;BME280;59274;49.874;9.154;2024-03-06T03:20:16;100501.97;;;4.25;100.00
71465;BME280;59274;49.874;9.154;2024-03-06T03:22:43;100511.53;;;4.34;100.00
71465;BME280;59274;49.874;9.154;2024-03-06T03:25:12;100506.31;;;4.38;100.00
71465;BME280;59274;49.874;9.154;2024-03-06T03:27:39;100509.59;;;4.44;100.00
71465;BME280;59274;49.874;9.154;2024-03-06T03:30:12;100509.09;;;4.50;100.00
71465;BME280;59274;49.874;9.154;2024-03-06T03:32:38;100512.78;;;4.46;100.00
71465;BME280;59274;49.874;9.154;2024-03-06T03:35:05;100515.25;;;4.51;100.00
71465;BME280;59274;49.874;9.154;2024-03-06T03:37:31;100518.28;;;4.49;100.00
71465;BME280;59274;49.874;9.154;2024-03-06T03:39:57;100520.25;;;4.40;100.00
71465;BME280;59274;49.874;9.154;2024-03-06T03:42:22;100524.19;;;4.34;100.00
71465;BME280;59274;49.874;9.154;2024-03-06T03:44:48;100525.03;;;4.26;100.00
71465;BME280;59274;49.874;9.154;2024-03-06T03:47:14;100529.94;;;4.24;100.00
71465;BME280;59274;49.874;9.154;2024-03-06T03:49:39;100529.94;;;4.24;100.00
71465;BME280;59274;49.874;9.154;2024-03-06T03:52:08;100534.25;;;4.16;100.00
71465;BME280;59274;49.874;9.154;2024-03-06T03:54:33;100538.22;;;4.02;100.00
71465;BME280;59274;49.874;9.154;2024-03-06T03:57:00;100536.81;;;4.04;100.00
71465;BME280;59274;49.874;9.154;2024-03-06T03:59:26;100536.81;;;4.04;100.00
71465;BME280;59274;49.874;9.154;2024-03-06T04:01:52;100542.81;;;4.10;100.00
71465;BME280;59274;49.874;9.154;2024-03-06T04:04:17;100536.81;;;4.04;100.00
71465;BME280;59274;49.874;9.154;2024-03-06T04:06:43;100535.56;;;4.02;100.00
71465;BME280;59274;49.874;9.154;2024-03-06T04:09:09;100540.91;;;4.10;100.00
71465;BME280;59274;49.874;9.154;2024-03-06T04:11:40;100527.47;;;4.10;100.00
71465;BME280;59274;49.874;9.154;2024-03-06T04:14:06;100538.19;;;4.19;100.00
71465;BME280;59274;49.874;9.154;2024-03-06T04:16:35;100536.25;;;4.19;100.00
71465;BME280;59274;49.874;9.154;2024-03-06T04:19:03;100531.06;;;4.14;100.00
71465;BME280;59274;49.874;9.154;2024-03-06T04:21:30;100544.41;;;4.02;100.00
71465;BME280;59274;49.874;9.154;2024-03-06T04:23:55;100549.50;;;3.86;100.00
71465;BME280;59274;49.874;9.154;2024-03-06T04:26:21;100548.06;;;3.89;100.00
71465;BME280;59274;49.874;9.154;2024-03-06T04:28:46;100554.69;;;3.91;100.00
71465;BME280;59274;49.874;9.154;2024-03-06T04:31:12;100558.03;;;3.80;100.00
71465;BME280;59274;49.874;9.154;2024-03-06T04:33:38;100564.19;;;3.80;100.00
71465;BME280;59274;49.874;9.154;2024-03-06T04:36:06;100567.06;;;3.75;100.00
71465;BME280;59274;49.874;9.154;2024-03-06T04:38:32;100575.75;;;3.72;100.00
71465;BME280;59274;49.874;9.154;2024-03-06T04:40:58;100580.00;;;3.65;100.00
71465;BME280;59274;49.874;9.154;2024-03-06T04:43:24;100589.34;;;3.59;100.00
71465;BME280;59274;49.874;9.154;2024-03-06T04:45:49;100588.22;;;3.60;100.00
71465;BME280;59274;49.874;9.154;2024-03-06T04:48:15;100593.91;;;3.49;100.00
71465;BME280;59274;49.874;9.154;2024-03-06T04:50:41;100591.72;;;3.60;100.00
71465;BME280;59274;49.874;9.154;2024-03-06T04:53:06;100598.19;;;3.68;100.00
71465;BME280;59274;49.874;9.154;2024-03-06T04:55:32;100596.28;;;3.68;100.00
71465;BME280;59274;49.874;9.154;2024-03-06T04:57:58;100584.28;;;3.74;100.00
71465;BME280;59274;49.874;9.154;2024-03-06T05:00:23;100602.44;;;3.86;100.00
71465;BME280;59274;49.874;9.154;2024-03-06T05:02:50;100596.59;;;3.75;100.00
71465;BME280;59274;49.874;9.154;2024-03-06T05:05:18;100599.91;;;3.64;100.00
71465;BME280;59274;49.874;9.154;2024-03-06T05:07:44;100604.97;;;3.65;100.00
71465;BME280;59274;49.874;9.154;2024-03-06T05:10:10;100606.06;;;3.73;100.00
71465;BME280;59274;49.874;9.154;2024-03-06T05:12:36;100608.28;;;3.79;100.00
71465;BME280;59274;49.874;9.154;2024-03-06T05:15:02;100612.38;;;3.85;100.00
71465;BME280;59274;49.874;9.154;2024-03-06T05:17:28;100607.97;;;3.89;100.00
71465;BME280;59274;49.874;9.154;2024-03-06T05:19:54;100614.63;;;3.83;100.00
71465;BME280;59274;49.874;9.154;2024-03-06T05:22:20;100611.44;;;3.73;100.00
71465;BME280;59274;49.874;9.154;2024-03-06T05:24:46;100619.03;;;3.71;100.00
71465;BME280;59274;49.874;9.154;2024-03-06T05:27:12;100613.81;;;3.66;100.00
71465;BME280;59274;49.874;9.154;2024-03-06T05:29:42;100617.44;;;3.70;100.00
71465;BME280;59274;49.874;9.154;2024-03-06T05:32:08;100626.78;;;3.81;100.00
71465;BME280;59274;49.874;9.154;2024-03-06T05:34:34;100633.72;;;3.90;100.00
71465;BME280;59274;49.874;9.154;2024-03-06T05:37:00;100632.59;;;3.91;100.00
71465;BME280;59274;49.874;9.154;2024-03-06T05:39:29;100639.56;;;3.84;100.00
71465;BME280;59274;49.874;9.154;2024-03-06T05:41:55;100642.09;;;3.80;100.00
71465;BME280;59274;49.874;9.154;2024-03-06T05:44:21;100640.81;;;3.78;100.00
71465;BME280;59274;49.874;9.154;2024-03-06T05:46:47;100642.56;;;3.65;100.00
71465;BME280;59274;49.874;9.154;2024-03-06T05:49:15;100640.97;;;3.55;100.00
71465;BME280;59274;49.874;9.154;2024-03-06T05:51:41;100648.38;;;3.41;100.00
71465;BME280;59274;49.874;9.154;2024-03-06T05:54:07;100643.81;;;3.33;100.00
71465;BME280;59274;49.874;9.154;2024-03-06T05:56:36;100652.31;;;3.35;100.00
71465;BME280;59274;49.874;9.154;2024-03-06T05:59:01;100653.28;;;3.39;100.00
71465;BME280;59274;49.874;9.154;2024-03-06T06:01:30;100650.78;;;3.51;100.00
71465;BME280;59274;49.874;9.154;2024-03-06T06:03:57;100654.72;;;3.54;100.00
71465;BME280;59274;49.874;9.154;2024-03-06T06:06:23;100657.41;;;3.45;100.00
71465;BME280;59274;49.874;9.154;2024-03-06T06:08:48;100654.88;;;3.49;100.00
71465;BME280;59274;49.874;9.154;2024-03-06T06:11:14;100665.44;;;3.45;100.00
71465;BME280;59274;49.874;9.154;2024-03-06T06:13:43;100665.75;;;3.35;100.00
71465;BME280;59274;49.874;9.154;2024-03-06T06:16:12;100669.72;;;3.46;100.00
71465;BME280;59274;49.874;9.154;2024-03-06T06:18:40;100676.81;;;3.34;100.00
71465;BME280;59274;49.874;9.154;2024-03-06T06:21:07;100673.47;;;3.28;100.00
71465;BME280;59274;49.874;9.154;2024-03-06T06:23:34;100679.94;;;3.36;100.00
71465;BME280;59274;49.874;9.154;2024-03-06T06:25:59;100676.34;;;3.40;100.00
71465;BME280;59274;49.874;9.154;2024-03-06T06:28:25;100683.47;;;3.53;100.00
71465;BME280;59274;49.874;9.154;2024-03-06T06:30:50;100683.00;;;3.60;100.00
71465;BME280;59274;49.874;9.154;2024-03-06T06:33:18;100692.59;;;3.44;100.00
71465;BME280;59274;49.874;9.154;2024-03-06T06:35:44;100696.25;;;3.57;100.00
71465;BME280;59274;49.874;9.154;2024-03-06T06:38:10;100702.44;;;3.66;100.00
71465;BME280;59274;49.874;9.154;2024-03-06T06:40:36;100699.91;;;3.78;100.00
71465;BME280;59274;49.874;9.154;2024-03-06T06:43:01;100696.28;;;3.74;100.00
71465;BME280;59274;49.874;9.154;2024-03-06T06:45:27;100696.63;;;3.81;100.00
71465;BME280;59274;49.874;9.154;2024-03-06T06:47:53;100693.28;;;3.75;100.00
71465;BME280;59274;49.874;9.154;2024-03-06T06:50:19;100698.50;;;3.72;100.00
71465;BME280;59274;49.874;9.154;2024-03-06T06:52:49;100701.84;;;3.94;100.00
71465;BME280;59274;49.874;9.154;2024-03-06T06:55:15;100700.41;;;4.06;100.00
71465;BME280;59274;49.874;9.154;2024-03-06T06:57:41;100710.97;;;4.19;100.00
71465;BME280;59274;49.874;9.154;2024-03-06T07:00:07;100720.50;;;4.25;100.00
71465;BME280;59274;49.874;9.154;2024-03-06T07:02:42;100714.94;;;4.30;100.00
71465;BME280;59274;49.874;9.154;2024-03-06T07:05:10;100719.22;;;4.40;100.00
71465;BME280;59274;49.874;9.154;2024-03-06T07:07:36;100733.91;;;4.43;100.00
71465;BME280;59274;49.874;9.154;2024-03-06T07:10:02;100722.16;;;4.56;100.00
71465;BME280;59274;49.874;9.154;2024-03-06T07:12:29;100731.19;;;4.51;100.00
71465;BME280;59274;49.874;9.154;2024-03-06T07:14:54;100736.56;;;4.60;100.00
71465;BME280;59274;49.874;9.154;2024-03-06T07:17:20;100732.13;;;4.64;100.00
71465;BME280;59274;49.874;9.154;2024-03-06T07:19:46;100739.88;;;4.57;100.00
71465;BME280;59274;49.874;9.154;2024-03-06T07:22:11;100728.94;;;4.62;100.00
71465;BME280;59274;49.874;9.154;2024-03-06T07:24:37;100729.94;;;4.49;100.00
71465;BME280;59274;49.874;9.154;2024-03-06T07:27:03;100733.56;;;4.61;100.00
71465;BME280;59274;49.874;9.154;2024-03-06T07:29:30;100739.25;;;4.60;100.00
71465;BME280;59274;49.874;9.154;2024-03-06T07:31:56;100747.00;;;4.61;100.00
71465;BME280;59274;49.874;9.154;2024-03-06T07:34:22;100740.47;;;4.88;100.00
71465;BME280;59274;49.874;9.154;2024-03-06T07:36:48;100747.13;;;4.82;100.00
71465;BME280;59274;49.874;9.154;2024-03-06T07:39:18;100745.66;;;4.93;100.00
71465;BME280;59274;49.874;9.154;2024-03-06T07:41:44;100747.47;;;4.63;100.00
71465;BME280;59274;49.874;9.154;2024-03-06T07:44:09;100759.81;;;4.73;100.00
71465;BME280;59274;49.874;9.154;2024-03-06T07:46:35;100754.25;;;4.69;100.00
71465;BME280;59274;49.874;9.154;2024-03-06T07:49:02;100751.53;;;4.87;100.00
71465;BME280;59274;49.874;9.154;2024-03-06T07:51:29;100755.94;;;5.00;100.00
71465;BME280;59274;49.874;9.154;2024-03-06T07:53:57;100756.72;;;5.00;100.00
71465;BME280;59274;49.874;9.154;2024-03-06T07:56:25;100754.47;;;5.11;100.00
71465;BME280;59274;49.874;9.154;2024-03-06T07:58:50;100758.03;;;5.32;100.00
71465;BME280;59274;49.874;9.154;2024-03-06T08:01:16;100762.75;;;5.35;100.00
71465;BME280;59274;49.874;9.154;2024-03-06T08:03:42;100764.97;;;5.33;100.00
71465;BME280;59274;49.874;9.154;2024-03-06T08:06:11;100774.28;;;5.44;100.00
71465;BME280;59274;49.874;9.154;2024-03-06T08:08:39;100770.66;;;5.40;100.00
71465;BME280;59274;49.874;9.154;2024-03-06T08:11:05;100772.06;;;5.46;100.00
71465;BME280;59274;49.874;9.154;2024-03-06T08:13:30;100775.38;;;5.52;100.00
71465;BME280;59274;49.874;9.154;2024-03-06T08:15:56;100771.50;;;5.32;100.00
71465;BME280;59274;49.874;9.154;2024-03-06T08:18:22;100765.91;;;5.37;100.00
71465;BME280;59274;49.874;9.154;2024-03-06T08:20:51;100765.22;;;5.49;100.00
71465;BME280;59274;49.874;9.154;2024-03-06T08:23:18;100777.06;;;5.57;100.00
71465;BME280;59274;49.874;9.154;2024-03-06T08:25:44;100782.75;;;5.64;100.00
71465;BME280;59274;49.874;9.154;2024-03-06T08:28:10;100774.94;;;5.71;100.00
71465;BME280;59274;49.874;9.154;2024-03-06T08:30:35;100781.50;;;5.90;100.00
71465;BME280;59274;49.874;9.154;2024-03-06T08:33:01;100784.72;;;6.05;100.00
71465;BME280;59274;49.874;9.154;2024-03-06T08:35:27;100789.59;;;6.11;100.00
71465;BME280;59274;49.874;9.154;2024-03-06T08:37:52;100793.06;;;5.91;100.00
71465;BME280;59274;49.874;9.154;2024-03-06T08:40:18;100790.78;;;6.02;100.00
71465;BME280;59274;49.874;9.154;2024-03-06T08:42:44;100795.34;;;5.80;100.00
71465;BME280;59274;49.874;9.154;2024-03-06T08:45:12;100800.63;;;5.98;100.00
71465;BME280;59274;49.874;9.154;2024-03-06T08:47:40;100802.22;;;6.19;100.00
71465;BME280;59274;49.874;9.154;2024-03-06T08:50:06;100809.34;;;6.45;100.00
71465;BME280;59274;49.874;9.154;2024-03-06T08:52:33;100804.34;;;6.55;100.00
71465;BME280;59274;49.874;9.154;2024-03-06T08:55:00;100801.03;;;6.71;100.00
71465;BME280;59274;49.874;9.154;2024-03-06T08:57:26;100801.75;;;6.80;100.00
71465;BME280;59274;49.874;9.154;2024-03-06T08:59:54;100803.94;;;7.11;100.00
71465;BME280;59274;49.874;9.154;2024-03-06T09:02:20;100807.59;;;7.39;100.00
71465;BME280;59274;49.874;9.154;2024-03-06T09:04:46;100799.50;;;7.63;100.00
71465;BME280;59274;49.874;9.154;2024-03-06T09:07:13;100797.13;;;7.50;100.00
71465;BME280;59274;49.874;9.154;2024-03-06T09:09:39;100806.47;;;7.28;100.00
71465;BME280;59274;49.874;9.154;2024-03-06T09:12:05;100800.41;;;7.31;100.00
71465;BME280;59274;49.874;9.154;2024-03-06T09:14:34;100808.81;;;7.17;100.00
71465;BME280;59274;49.874;9.154;2024-03-06T09:17:00;100814.31;;;7.08;100.00
71465;BME280;59274;49.874;9.154;2024-03-06T09:19:26;100809.22;;;6.95;100.00
71465;BME280;59274;49.874;9.154;2024-03-06T09:21:53;100814.00;;;6.89;100.00
71465;BME280;59274;49.874;9.154;2024-03-06T09:24:21;100810.00;;;6.95;100.00
71465;BME280;59274;49.874;9.154;2024-03-06T09:26:48;100816.63;;;6.98;100.00
71465;BME280;59274;49.874;9.154;2024-03-06T09:29:15;100821.97;;;7.19;100.00
71465;BME280;59274;49.874;9.154;2024-03-06T09:31:41;100822.56;;;7.24;100.00
71465;BME280;59274;49.874;9.154;2024-03-06T09:34:07;100824.00;;;7.22;100.00
71465;BME280;59274;49.874;9.154;2024-03-06T09:36:35;100812.84;;;7.11;100.00
71465;BME280;59274;49.874;9.154;2024-03-06T09:39:01;100824.81;;;7.22;100.00
71465;BME280;59274;49.874;9.154;2024-03-06T09:41:30;100819.56;;;7.05;100.00
71465;BME280;59274;49.874;9.154;2024-03-06T09:43:55;100822.31;;;7.17;100.00
71465;BME280;59274;49.874;9.154;2024-03-06T09:46:21;100819.25;;;7.19;100.00
71465;BME280;59274;49.874;9.154;2024-03-06T09:48:48;100825.47;;;7.19;100.00
71465;BME280;59274;49.874;9.154;2024-03-06T09:51:14;100828.88;;;7.28;100.00
71465;BME280;59274;49.874;9.154;2024-03-06T09:53:41;100827.38;;;7.19;100.00
71465;BME280;59274;49.874;9.154;2024-03-06T09:56:08;100836.94;;;7.16;100.00
71465;BME280;59274;49.874;9.154;2024-03-06T09:58:37;100832.66;;;7.15;100.00
71465;BME280;59274;49.874;9.154;2024-03-06T10:01:05;100832.59;;;7.24;100.00
71465;BME280;59274;49.874;9.154;2024-03-06T10:03:33;100821.69;;;7.69;100.00
71465;BME280;59274;49.874;9.154;2024-03-06T10:06:00;100826.50;;;8.12;100.00
71465;BME280;59274;49.874;9.154;2024-03-06T10:08:26;100828.88;;;8.38;100.00
71465;BME280;59274;49.874;9.154;2024-03-06T10:10:52;100827.03;;;8.42;100.00
71465;BME280;59274;49.874;9.154;2024-03-06T10:13:18;100828.41;;;8.36;100.00
71465;BME280;59274;49.874;9.154;2024-03-06T10:15:57;100823.66;;;8.20;100.00
71465;BME280;59274;49.874;9.154;2024-03-06T10:18:26;100827.50;;;8.32;100.00
71465;BME280;59274;49.874;9.154;2024-03-06T10:20:52;100828.06;;;8.25;100.00
71465;BME280;59274;49.874;9.154;2024-03-06T10:23:19;100834.72;;;8.27;100.00
71465;BME280;59274;49.874;9.154;2024-03-06T10:25:46;100834.94;;;8.35;100.00
71465;BME280;59274;49.874;9.154;2024-03-06T10:28:18;100845.34;;;8.60;100.00
71465;BME280;59274;49.874;9.154;2024-03-06T10:30:44;100836.41;;;8.72;100.00
71465;BME280;59274;49.874;9.154;2024-03-06T10:33:11;100836.09;;;8.89;100.00
71465;BME280;59274;49.874;9.154;2024-03-06T10:35:39;100833.72;;;8.72;100.00
71465;BME280;59274;49.874;9.154;2024-03-06T10:38:06;100834.75;;;9.11;100.00
71465;BME280;59274;49.874;9.154;2024-03-06T10:40:33;100840.47;;;9.53;100.00
71465;BME280;59274;49.874;9.154;2024-03-06T10:43:00;100853.34;;;9.56;100.00
71465;BME280;59274;49.874;9.154;2024-03-06T10:48:10;100844.47;;;9.91;100.00
71465;BME280;59274;49.874;9.154;2024-03-06T10:50:41;100847.28;;;9.78;100.00
71465;BME280;59274;49.874;9.154;2024-03-06T10:53:14;100846.28;;;10.02;100.00
71465;BME280;59274;49.874;9.154;2024-03-06T10:55:43;100836.03;;;10.11;100.00
71465;BME280;59274;49.874;9.154;2024-03-06T10:58:12;100838.53;;;10.01;100.00
71465;BME280;59274;49.874;9.154;2024-03-06T11:00:41;100837.97;;;9.95;100.00
71465;BME280;59274;49.874;9.154;2024-03-06T11:03:08;100831.53;;;9.84;100.00
71465;BME280;59274;49.874;9.154;2024-03-06T11:05:35;100838.81;;;9.80;100.00
71465;BME280;59274;49.874;9.154;2024-03-06T11:08:02;100844.59;;;9.78;100.00
71465;BME280;59274;49.874;9.154;2024-03-06T11:10:33;100842.19;;;10.08;100.00
71465;BME280;59274;49.874;9.154;2024-03-06T11:13:00;100840.22;;;10.09;100.00
71465;BME280;59274;49.874;9.154;2024-03-06T11:15:27;100848.13;;;10.14;100.00
71465;BME280;59274;49.874;9.154;2024-03-06T11:17:52;100839.75;;;9.88;100.00
71465;BME280;59274;49.874;9.154;2024-03-06T11:20:20;100844.94;;;9.61;100.00
71465;BME280;59274;49.874;9.154;2024-03-06T11:28:32;100840.75;;;9.64;100.00
71465;BME280;59274;49.874;9.154;2024-03-06T11:31:07;100841.94;;;9.82;100.00
71465;BME280;59274;49.874;9.154;2024-03-06T11:33:44;100840.03;;;9.82;100.00
71465;BME280;59274;49.874;9.154;2024-03-06T11:36:22;100834.75;;;9.90;100.00
71465;BME280;59274;49.874;9.154;2024-03-06T11:38:57;100835.72;;;9.97;100.00
71465;BME280;59274;49.874;9.154;2024-03-06T11:41:31;100830.38;;;10.01;100.00
71465;BME280;59274;49.874;9.154;2024-03-06T11:44:00;100839.91;;;9.95;100.00
71465;BME280;59274;49.874;9.154;2024-03-06T11:46:42;100836.03;;;10.11;100.00
71465;BME280;59274;49.874;9.154;2024-03-06T11:49:23;100832.44;;;10.23;100.00
71465;BME280;59274;49.874;9.154;2024-03-06T11:51:56;100822.66;;;10.03;100.00
71465;BME280;59274;49.874;9.154;2024-03-06T11:54:23;100824.16;;;10.00;100.00
71465;BME280;59274;49.874;9.154;2024-03-06T11:56:53;100825.19;;;9.96;100.00
71465;BME280;59274;49.874;9.154;2024-03-06T11:59:35;100828.69;;;10.12;100.00
71465;BME280;59274;49.874;9.154;2024-03-06T12:02:02;100825.50;;;10.26;100.00
71465;BME280;59274;49.874;9.154;2024-03-06T12:04:30;100837.00;;;10.19;100.00
71465;BME280;59274;49.874;9.154;2024-03-06T12:07:00;100826.31;;;10.26;100.00
71465;BME280;59274;49.874;9.154;2024-03-06T12:09:32;100822.75;;;10.41;100.00
71465;BME280;59274;49.874;9.154;2024-03-06T12:11:58;100824.75;;;10.64;100.00
71465;BME280;59274;49.874;9.154;2024-03-06T12:14:24;100833.97;;;10.78;100.00
71465;BME280;59274;49.874;9.154;2024-03-06T12:16:57;100826.06;;;11.12;100.00
71465;BME280;59274;49.874;9.154;2024-03-06T12:19:25;100831.97;;;11.17;100.00
71465;BME280;59274;49.874;9.154;2024-03-06T12:21:52;100825.28;;;11.11;100.00
71465;BME280;59274;49.874;9.154;2024-03-06T12:24:19;100830.47;;;10.78;100.00
71465;BME280;59274;49.874;9.154;2024-03-06T12:26:46;100824.75;;;10.83;100.00
71465;BME280;59274;49.874;9.154;2024-03-06T12:29:17;100831.31;;;11.01;100.00
71465;BME280;59274;49.874;9.154;2024-03-06T12:31:46;100828.22;;;11.03;100.00
71465;BME280;59274;49.874;9.154;2024-03-06T12:34:16;100825.53;;;10.83;100.00
71465;BME280;59274;49.874;9.154;2024-03-06T12:36:42;100823.16;;;10.82;100.00
71465;BME280;59274;49.874;9.154;2024-03-06T12:39:08;100821.19;;;10.79;100.00
71465;BME280;59274;49.874;9.154;2024-03-06T12:41:41;100817.94;;;10.73;100.00
71465;BME280;59274;49.874;9.154;2024-03-06T12:44:07;100826.34;;;10.65;100.00
71465;BME280;59274;49.874;9.154;2024-03-06T12:46:33;100826.75;;;10.67;100.00
71465;BME280;59274;49.874;9.154;2024-03-06T12:48:59;100819.59;;;10.78;100.00
71465;BME280;59274;49.874;9.154;2024-03-06T12:51:26;100827.63;;;10.71;100.00
71465;BME280;59274;49.874;9.154;2024-03-06T12:53:52;100816.88;;;10.78;100.00
71465;BME280;59274;49.874;9.154;2024-03-06T12:56:18;100824.31;;;10.81;100.00